createdAt,value
2019-04-13T00:01:33.769Z,8.37
2019-04-13T00:04:02.259Z,8.93
2019-04-13T00:06:44.487Z,8.77
2019-04-13T00:09:14.603Z,8.93
2019-04-13T00:11:48.027Z,8.97
2019-04-13T00:14:17.773Z,9.17
2019-04-13T00:16:46.253Z,9.57
2019-04-13T00:19:14.647Z,8.33
2019-04-13T00:21:43.058Z,8.83
2019-04-13T00:24:11.450Z,9.20
2019-04-13T00:26:39.849Z,9.13
2019-04-13T00:29:08.342Z,8.70
2019-04-13T00:31:36.742Z,8.60
2019-04-13T00:34:05.404Z,9.13
2019-04-13T00:36:33.826Z,9.27
2019-04-13T00:39:02.231Z,9.60
2019-04-13T00:41:30.643Z,9.23
2019-04-13T00:43:59.037Z,8.83
2019-04-13T00:46:29.326Z,8.97
2019-04-13T00:48:57.734Z,8.87
2019-04-13T00:51:26.132Z,8.80
2019-04-13T00:53:54.575Z,9.27
2019-04-13T00:56:23.255Z,9.43
2019-04-13T00:58:51.650Z,8.80
2019-04-13T01:01:20.051Z,8.87
2019-04-13T01:03:48.510Z,8.47
2019-04-13T01:06:16.918Z,8.40
2019-04-13T01:08:45.322Z,9.07
2019-04-13T01:11:13.737Z,8.77
2019-04-13T01:13:42.137Z,9.23
2019-04-13T01:16:10.541Z,9.07
2019-04-13T01:18:38.942Z,8.77
2019-04-13T01:21:07.335Z,9.13
2019-04-13T01:23:35.800Z,8.40
2019-04-13T01:26:04.406Z,8.43
2019-04-13T01:28:32.852Z,8.87
2019-04-13T01:31:01.335Z,8.43
2019-04-13T01:33:29.829Z,8.93
2019-04-13T01:35:58.235Z,8.43
2019-04-13T01:38:26.625Z,8.60
2019-04-13T01:40:55.043Z,8.53
2019-04-13T01:43:24.415Z,9.23
2019-04-13T01:45:52.838Z,8.97
2019-04-13T01:48:21.260Z,8.93
2019-04-13T01:50:50.410Z,9.50
2019-04-13T01:53:18.828Z,9.53
2019-04-13T01:55:47.222Z,9.57
2019-04-13T01:58:15.622Z,9.70
2019-04-13T02:00:45.653Z,9.70
2019-04-13T02:03:14.081Z,9.30
2019-04-13T02:05:44.101Z,9.47
2019-04-13T02:08:14.146Z,9.53
2019-04-13T02:10:44.246Z,9.77
2019-04-13T02:13:12.709Z,9.53
2019-04-13T02:15:41.202Z,9.53
2019-04-13T02:18:09.595Z,9.97
2019-04-13T02:20:38.035Z,10.77
2019-04-13T02:23:06.450Z,10.60
2019-04-13T02:25:35.169Z,9.10
2019-04-13T02:28:03.586Z,9.67
2019-04-13T02:30:31.992Z,10.03
2019-04-13T02:33:00.450Z,9.77
2019-04-13T02:35:36.063Z,9.60
2019-04-13T02:37:59.095Z,10.47
2019-04-13T02:40:27.506Z,10.03
2019-04-13T02:42:55.918Z,9.80
2019-04-13T02:45:24.311Z,10.50
2019-04-13T02:47:52.702Z,10.63
2019-04-13T02:50:21.102Z,9.73
2019-04-13T02:52:49.514Z,10.33
2019-04-13T02:55:17.940Z,10.60
2019-04-13T02:57:46.350Z,9.83
2019-04-13T03:00:15.911Z,11.07
2019-04-13T03:02:44.525Z,10.80
2019-04-13T03:05:12.988Z,10.00
2019-04-13T03:07:41.682Z,11.03
2019-04-13T03:10:10.228Z,10.53
2019-04-13T03:12:38.757Z,11.27
2019-04-13T03:15:08.527Z,10.90
2019-04-13T03:17:38.819Z,12.03
2019-04-13T03:20:09.534Z,12.33
2019-04-13T03:22:37.935Z,11.13
2019-04-13T03:25:06.666Z,10.93
2019-04-13T03:27:35.071Z,11.07
2019-04-13T03:30:03.551Z,11.53
2019-04-13T03:32:32.037Z,11.37
2019-04-13T03:35:00.611Z,11.43
2019-04-13T03:37:29.078Z,12.63
2019-04-13T03:39:57.491Z,11.97
2019-04-13T03:42:26.038Z,13.10
2019-04-13T03:44:54.442Z,12.10
2019-04-13T03:47:22.872Z,11.90
2019-04-13T03:49:51.283Z,11.97
2019-04-13T03:52:19.778Z,11.87
2019-04-13T03:54:48.175Z,12.73
2019-04-13T03:57:16.569Z,12.67
2019-04-13T03:59:44.982Z,11.83
2019-04-13T04:02:13.394Z,12.40
2019-04-13T04:04:41.802Z,13.23
2019-04-13T04:07:10.238Z,13.33
2019-04-13T04:09:38.882Z,13.50
2019-04-13T04:12:09.974Z,13.33
2019-04-13T04:14:37.423Z,13.07
2019-04-13T04:17:05.826Z,12.60
2019-04-13T04:19:34.237Z,13.90
2019-04-13T04:22:02.879Z,13.83
2019-04-13T04:24:31.315Z,13.10
2019-04-13T04:26:59.778Z,13.27
2019-04-13T04:29:28.300Z,13.97
2019-04-13T04:31:56.670Z,13.33
2019-04-13T04:34:25.134Z,12.67
2019-04-13T04:36:53.526Z,13.60
2019-04-13T04:39:21.945Z,14.13
2019-04-13T04:41:50.346Z,13.03
2019-04-13T04:44:18.807Z,13.80
2019-04-13T04:46:47.215Z,15.50
2019-04-13T04:49:15.631Z,14.13
2019-04-13T04:51:46.606Z,14.33
2019-04-13T04:54:14.158Z,14.10
2019-04-13T04:56:42.711Z,13.63
2019-04-13T04:59:11.099Z,13.33
2019-04-13T05:01:39.751Z,13.60
2019-04-13T05:04:08.146Z,13.90
2019-04-13T05:06:36.960Z,13.20
2019-04-13T05:09:06.191Z,14.17
2019-04-13T05:11:34.940Z,13.60
2019-04-13T05:14:03.346Z,14.03
2019-04-13T05:16:31.736Z,14.30
2019-04-13T05:19:00.131Z,14.37
2019-04-13T05:21:28.550Z,13.00
2019-04-13T05:23:56.978Z,13.83
2019-04-13T05:26:25.383Z,13.87
2019-04-13T05:28:53.777Z,13.20
2019-04-13T05:31:22.184Z,14.80
2019-04-13T05:33:51.878Z,14.03
2019-04-13T05:36:20.417Z,13.13
2019-04-13T05:38:48.870Z,13.57
2019-04-13T05:41:17.294Z,15.77
2019-04-13T05:43:45.707Z,14.77
2019-04-13T05:46:14.115Z,14.03
2019-04-13T05:48:42.798Z,14.63
2019-04-13T05:51:11.190Z,14.03
2019-04-13T05:53:39.590Z,15.27
2019-04-13T05:56:08.281Z,12.97
2019-04-13T05:58:36.670Z,13.10
2019-04-13T06:01:05.062Z,14.00
2019-04-13T06:03:33.738Z,14.37
2019-04-13T06:06:02.140Z,13.87
2019-04-13T06:08:30.535Z,14.47
2019-04-13T06:10:58.946Z,14.00
2019-04-13T06:13:27.358Z,13.97
2019-04-13T06:15:55.750Z,13.07
2019-04-13T06:18:24.149Z,14.70
2019-04-13T06:20:52.646Z,14.43
2019-04-13T06:23:21.242Z,14.00
2019-04-13T06:25:49.711Z,14.03
2019-04-13T06:28:18.109Z,14.07
2019-04-13T06:30:48.146Z,14.30
2019-04-13T06:33:18.219Z,13.53
2019-04-13T06:35:46.630Z,13.77
2019-04-13T06:38:15.244Z,13.87
2019-04-13T06:40:43.639Z,14.03
2019-04-13T06:43:12.308Z,13.90
2019-04-13T06:45:40.722Z,14.13
2019-04-13T06:48:09.119Z,14.03
2019-04-13T06:50:37.522Z,13.63
2019-04-13T06:53:08.115Z,13.70
2019-04-13T06:55:36.266Z,13.20
2019-04-13T06:58:04.806Z,13.17
2019-04-13T07:00:33.223Z,14.70
2019-04-13T07:03:01.614Z,13.83
2019-04-13T07:05:30.022Z,13.80
2019-04-13T07:08:12.186Z,14.37
2019-04-13T07:10:50.046Z,14.57
2019-04-13T07:13:37.072Z,14.50
2019-04-13T07:16:16.479Z,13.90
2019-04-13T07:18:44.885Z,14.83
2019-04-13T07:21:13.274Z,15.30
2019-04-13T07:23:41.993Z,15.10
2019-04-13T07:26:11.252Z,14.53
2019-04-13T07:28:40.155Z,13.77
2019-04-13T07:31:08.619Z,13.63
2019-04-13T07:33:37.163Z,13.70
2019-04-13T07:36:05.565Z,13.40
2019-04-13T07:38:34.042Z,14.07
2019-04-13T07:41:02.447Z,13.60
2019-04-13T07:43:32.123Z,13.83
2019-04-13T07:46:20.729Z,13.93
2019-04-13T07:49:02.555Z,14.40
2019-04-13T07:51:32.588Z,15.10
2019-04-13T07:54:00.984Z,15.13
2019-04-13T07:56:32.089Z,15.43
2019-04-13T07:58:59.509Z,15.37
2019-04-13T08:01:28.016Z,15.50
2019-04-13T08:03:56.505Z,14.47
2019-04-13T08:06:26.036Z,15.47
2019-04-13T08:08:54.806Z,14.63
2019-04-13T08:11:23.286Z,16.57
2019-04-13T08:13:52.162Z,15.40
2019-04-13T08:16:24.865Z,14.67
2019-04-13T08:19:07.559Z,15.10
2019-04-13T08:21:37.674Z,15.20
2019-04-13T08:24:06.071Z,15.50
2019-04-13T08:26:34.629Z,16.07
2019-04-13T08:29:03.028Z,15.53
2019-04-13T08:31:31.516Z,15.13
2019-04-13T08:34:00.098Z,14.47
2019-04-13T08:36:28.495Z,15.03
2019-04-13T08:38:59.105Z,15.20
2019-04-13T08:41:27.479Z,14.97
2019-04-13T08:43:55.884Z,14.33
2019-04-13T08:46:24.547Z,14.87
2019-04-13T08:48:52.939Z,14.97
2019-04-13T08:51:21.338Z,15.00
2019-04-13T08:53:49.767Z,16.03
2019-04-13T08:56:18.154Z,14.87
2019-04-13T08:58:47.161Z,14.67
2019-04-13T09:01:16.014Z,14.70
2019-04-13T09:03:44.626Z,16.23
2019-04-13T09:06:16.581Z,15.67
2019-04-13T09:08:43.134Z,15.73
2019-04-13T09:11:14.275Z,14.83
2019-04-13T09:13:42.063Z,15.90
2019-04-13T09:16:10.770Z,15.03
2019-04-13T09:18:46.933Z,15.23
2019-04-13T09:21:29.674Z,15.80
2019-04-13T09:23:58.066Z,16.47
2019-04-13T09:26:26.461Z,15.27
2019-04-13T09:28:54.893Z,15.00
2019-04-13T09:31:25.481Z,15.37
2019-04-13T09:33:53.454Z,15.80
2019-04-13T09:36:21.866Z,14.43
2019-04-13T09:38:50.287Z,15.07
2019-04-13T09:41:18.698Z,15.50
2019-04-13T09:44:04.076Z,16.23
2019-04-13T09:46:32.536Z,16.03
2019-04-13T09:49:00.942Z,16.23
2019-04-13T09:51:29.362Z,16.33
2019-04-13T09:53:57.836Z,15.27
2019-04-13T09:56:36.701Z,15.30
2019-04-13T09:58:56.450Z,15.50
2019-04-13T10:01:24.887Z,15.40
2019-04-13T10:03:53.299Z,15.83
2019-04-13T10:06:21.703Z,15.43
2019-04-13T10:08:56.092Z,15.87
2019-04-13T10:11:21.915Z,15.20
2019-04-13T10:13:54.641Z,16.37
2019-04-13T10:16:36.958Z,16.90
2019-04-13T10:19:05.659Z,16.00
2019-04-13T10:21:34.060Z,15.83
2019-04-13T10:24:02.570Z,15.87
2019-04-13T10:26:30.974Z,16.60
2019-04-13T10:28:59.390Z,15.87
2019-04-13T10:31:27.806Z,15.13
2019-04-13T10:33:56.206Z,16.37
2019-04-13T10:36:24.808Z,15.40
2019-04-13T10:38:53.217Z,16.40
2019-04-13T10:41:21.720Z,15.97
2019-04-13T10:43:50.214Z,15.83
2019-04-13T10:46:23.194Z,15.50
2019-04-13T10:49:05.375Z,14.33
2019-04-13T10:51:38.463Z,15.77
2019-04-13T10:54:06.874Z,16.90
2019-04-13T10:56:35.308Z,16.67
2019-04-13T10:59:03.777Z,17.23
2019-04-13T11:01:32.197Z,15.87
2019-04-13T11:04:00.674Z,15.87
2019-04-13T11:06:29.075Z,16.70
2019-04-13T11:08:57.583Z,17.03
2019-04-13T11:11:26.001Z,16.07
2019-04-13T11:13:54.414Z,16.63
2019-04-13T11:16:22.830Z,16.77
2019-04-13T11:18:51.315Z,16.67
2019-04-13T11:21:19.779Z,16.10
2019-04-13T11:23:48.187Z,17.40
2019-04-13T11:26:17.079Z,16.77
2019-04-13T11:28:45.478Z,16.90
2019-04-13T11:31:13.955Z,17.20
2019-04-13T11:33:42.746Z,16.73
2019-04-13T11:36:11.246Z,16.87
2019-04-13T11:38:39.790Z,17.03
2019-04-13T11:41:09.837Z,17.10
2019-04-13T11:43:56.459Z,17.60
2019-04-13T11:46:29.164Z,17.17
2019-04-13T11:49:07.563Z,17.60
2019-04-13T11:51:36.138Z,16.73
2019-04-13T11:54:06.107Z,17.03
2019-04-13T11:56:37.065Z,16.50
2019-04-13T11:59:04.818Z,17.43
2019-04-13T12:01:51.058Z,17.43
2019-04-13T12:04:31.138Z,18.80
2019-04-13T12:07:17.959Z,17.57
2019-04-13T12:10:06.476Z,17.30
2019-04-13T12:12:51.889Z,17.63
2019-04-13T12:15:27.747Z,17.53
2019-04-13T12:18:00.673Z,17.60
2019-04-13T12:20:30.718Z,17.13
2019-04-13T12:22:59.235Z,16.43
2019-04-13T12:25:27.956Z,17.43
2019-04-13T12:27:56.410Z,16.83
2019-04-13T12:30:29.588Z,18.20
2019-04-13T12:32:57.982Z,17.37
2019-04-13T12:35:26.384Z,17.23
2019-04-13T12:37:54.908Z,18.27
2019-04-13T12:40:27.794Z,17.93
2019-04-13T12:42:56.188Z,17.60
2019-04-13T12:45:24.866Z,18.57
2019-04-13T12:47:53.435Z,17.27
2019-04-13T12:50:41.289Z,18.17
2019-04-13T12:53:09.683Z,18.23
2019-04-13T12:55:38.098Z,17.53
2019-04-13T12:58:06.513Z,18.23
2019-04-13T13:00:39.166Z,18.03
2019-04-13T13:03:09.712Z,18.67
2019-04-13T13:05:39.866Z,19.10
2019-04-13T13:08:08.887Z,18.83
2019-04-13T13:10:37.383Z,18.60
2019-04-13T13:13:05.782Z,18.17
2019-04-13T13:15:36.505Z,19.90
2019-04-13T13:18:04.324Z,19.00
2019-04-13T13:20:32.730Z,18.73
2019-04-13T13:23:01.138Z,18.70
2019-04-13T13:25:29.542Z,19.33
2019-04-13T13:27:57.961Z,18.90
2019-04-13T13:30:26.456Z,19.87
2019-04-13T13:32:56.730Z,18.17
2019-04-13T13:35:25.143Z,17.83
2019-04-13T13:37:53.637Z,18.37
2019-04-13T13:40:31.229Z,18.87
2019-04-13T13:42:52.226Z,18.17
2019-04-13T13:45:25.187Z,18.93
2019-04-13T13:47:50.902Z,17.73
2019-04-13T13:50:21.996Z,19.07
2019-04-13T13:52:49.448Z,19.23
2019-04-13T13:55:17.955Z,19.53
2019-04-13T13:58:07.441Z,18.50
2019-04-13T14:00:43.478Z,18.43
2019-04-13T14:03:12.116Z,19.07
2019-04-13T14:05:40.527Z,19.40
2019-04-13T14:08:08.919Z,19.07
2019-04-13T14:10:42.762Z,19.07
2019-04-13T14:13:07.497Z,20.10
2019-04-13T14:15:35.902Z,19.27
2019-04-13T14:18:04.304Z,19.10
2019-04-13T14:20:34.313Z,18.80
2019-04-13T14:23:02.848Z,19.80
2019-04-13T14:25:31.247Z,19.77
2019-04-13T14:27:59.717Z,18.80
2019-04-13T14:30:28.126Z,19.70
2019-04-13T14:32:56.670Z,20.53
2019-04-13T14:35:25.154Z,21.10
2019-04-13T14:37:53.557Z,20.60
2019-04-13T14:40:21.981Z,19.80
2019-04-13T14:42:50.399Z,21.33
2019-04-13T14:45:18.875Z,20.53
2019-04-13T14:47:47.276Z,20.80
2019-04-13T14:50:16.015Z,20.27
2019-04-13T14:52:44.409Z,20.00
2019-04-13T14:55:12.809Z,20.60
2019-04-13T14:57:41.598Z,20.53
2019-04-13T15:00:10.411Z,21.53
2019-04-13T15:02:38.840Z,21.10
2019-04-13T15:05:14.550Z,21.50
2019-04-13T15:07:40.452Z,20.57
2019-04-13T15:10:09.141Z,21.70
2019-04-13T15:12:37.729Z,20.70
2019-04-13T15:15:07.293Z,20.53
2019-04-13T15:17:39.762Z,21.73
2019-04-13T15:20:15.167Z,21.90
2019-04-13T15:22:39.344Z,21.13
2019-04-13T15:25:08.931Z,21.10
2019-04-13T15:27:39.954Z,22.37
2019-04-13T15:30:11.592Z,21.40
2019-04-13T15:32:38.794Z,21.43
2019-04-13T15:35:11.461Z,19.67
2019-04-13T15:37:42.225Z,20.07
2019-04-13T15:40:09.065Z,21.07
2019-04-13T15:42:43.842Z,19.93
2019-04-13T15:45:07.856Z,21.70
2019-04-13T15:47:36.870Z,20.17
2019-04-13T15:50:07.425Z,20.30
2019-04-13T15:52:36.935Z,21.20
2019-04-13T15:55:07.195Z,21.13
2019-04-13T15:57:35.753Z,21.93
2019-04-13T16:00:07.073Z,21.80
2019-04-13T16:02:37.881Z,21.10
2019-04-13T16:05:07.274Z,22.20
2019-04-13T16:07:36.457Z,21.03
2019-04-13T16:10:24.808Z,21.07
2019-04-13T16:12:57.924Z,19.83
2019-04-13T16:15:38.098Z,20.57
2019-04-13T16:18:06.742Z,20.50
2019-04-13T16:20:35.900Z,20.83
2019-04-13T16:23:04.785Z,21.57
2019-04-13T16:25:33.771Z,20.57
2019-04-13T16:28:17.937Z,21.13
2019-04-13T16:30:48.242Z,21.20
2019-04-13T16:33:19.405Z,20.73
2019-04-13T16:35:49.622Z,23.03
2019-04-13T16:38:18.027Z,22.23
2019-04-13T16:40:46.495Z,21.70
2019-04-13T16:43:15.882Z,21.07
2019-04-13T16:45:46.388Z,20.37
2019-04-13T16:48:16.748Z,20.67
2019-04-13T16:50:46.896Z,19.93
2019-04-13T16:53:35.217Z,19.63
2019-04-13T16:56:05.292Z,19.97
2019-04-13T16:58:36.322Z,20.70
2019-04-13T17:01:09.689Z,20.90
2019-04-13T17:03:40.137Z,19.90
2019-04-13T17:06:11.121Z,18.13
2019-04-13T17:08:39.655Z,19.90
2019-04-13T17:11:09.121Z,21.23
2019-04-13T17:13:37.542Z,20.03
2019-04-13T17:16:07.090Z,19.80
2019-04-13T17:18:38.094Z,21.50
2019-04-13T17:21:08.429Z,21.13
2019-04-13T17:23:50.341Z,20.37
2019-04-13T17:26:20.815Z,19.90
2019-04-13T17:28:51.627Z,21.13
2019-04-13T17:31:37.819Z,22.23
2019-04-13T17:34:09.222Z,21.10
2019-04-13T17:36:39.866Z,22.03
2019-04-13T17:39:08.773Z,22.17
2019-04-13T17:41:38.966Z,21.80
2019-04-13T17:44:10.231Z,20.87
2019-04-13T17:46:57.332Z,20.43
2019-04-13T17:49:27.824Z,20.23
2019-04-13T17:52:15.213Z,21.80
2019-04-13T17:54:51.890Z,22.40
2019-04-13T17:57:25.063Z,21.07
2019-04-13T18:00:01.741Z,21.37
2019-04-13T18:02:32.194Z,20.60
2019-04-13T18:05:02.481Z,21.87
2019-04-13T18:07:48.788Z,21.17
2019-04-13T18:10:30.105Z,21.17
2019-04-13T18:13:05.678Z,21.70
2019-04-13T18:15:51.091Z,21.30
2019-04-13T18:18:37.458Z,20.57
2019-04-13T18:21:05.986Z,20.50
2019-04-13T18:23:34.553Z,22.03
2019-04-13T18:26:04.358Z,21.13
2019-04-13T18:28:33.722Z,21.17
2019-04-13T18:31:02.229Z,21.80
2019-04-13T18:33:30.652Z,24.03
2019-04-13T18:35:59.038Z,22.10
2019-04-13T18:38:28.895Z,20.60
2019-04-13T18:40:57.415Z,19.60
2019-04-13T18:43:29.391Z,22.67
2019-04-13T18:45:56.032Z,22.17
2019-04-13T18:48:25.078Z,20.50
2019-04-13T18:50:53.956Z,19.53
2019-04-13T18:53:23.385Z,19.37
2019-04-13T18:55:51.874Z,20.50
2019-04-13T18:58:20.710Z,19.47
2019-04-13T19:00:49.291Z,20.70
2019-04-13T19:03:17.761Z,19.07
2019-04-13T19:05:46.580Z,18.67
2019-04-13T19:08:14.969Z,16.60
2019-04-13T19:10:43.511Z,19.57
2019-04-13T19:13:12.017Z,17.73
2019-04-13T19:15:40.446Z,18.90
2019-04-13T19:18:08.881Z,18.00
2019-04-13T19:20:37.280Z,18.77
2019-04-13T19:23:05.677Z,19.27
2019-04-13T19:25:34.090Z,18.70
2019-04-13T19:28:02.571Z,19.93
2019-04-13T19:30:33.354Z,20.10
2019-04-13T19:33:01.210Z,20.37
2019-04-13T19:35:29.655Z,20.97
2019-04-13T19:37:58.121Z,20.93
2019-04-13T19:40:26.530Z,19.07
2019-04-13T19:42:55.086Z,19.83
2019-04-13T19:45:23.531Z,21.00
2019-04-13T19:47:52.008Z,20.90
2019-04-13T19:50:20.438Z,19.90
2019-04-13T19:52:59.500Z,18.27
2019-04-13T19:55:27.968Z,19.93
2019-04-13T19:57:56.518Z,18.03
2019-04-13T20:00:26.556Z,18.63
2019-04-13T20:02:54.970Z,18.77
2019-04-13T20:05:23.402Z,18.77
2019-04-13T20:07:51.822Z,18.93
2019-04-13T20:10:20.218Z,19.60
2019-04-13T20:12:49.019Z,20.47
2019-04-13T20:15:18.465Z,18.90
2019-04-13T20:17:47.249Z,18.70
2019-04-13T20:20:15.751Z,20.63
2019-04-13T20:22:44.155Z,18.90
2019-04-13T20:25:13.547Z,19.23
2019-04-13T20:27:43.372Z,18.67
2019-04-13T20:30:13.053Z,20.10
2019-04-13T20:32:42.726Z,18.80
2019-04-13T20:35:13.210Z,18.97
2019-04-13T20:37:42.630Z,20.07
2019-04-13T20:40:14.110Z,18.33
2019-04-13T20:42:43.693Z,19.47
2019-04-13T20:45:13.539Z,18.40
2019-04-13T20:47:42.034Z,19.00
2019-04-13T20:50:10.497Z,18.50
2019-04-13T20:52:38.904Z,18.40
2019-04-13T20:55:10.953Z,17.43
2019-04-13T20:57:37.591Z,17.97
2019-04-13T21:00:07.991Z,18.20
2019-04-13T21:02:37.365Z,18.77
2019-04-13T21:05:07.851Z,19.57
2019-04-13T21:07:36.540Z,19.17
2019-04-13T21:10:06.610Z,18.60
2019-04-13T21:12:35.137Z,18.57
2019-04-13T21:15:05.423Z,18.40
2019-04-13T21:17:35.305Z,18.23
2019-04-13T21:20:05.948Z,18.97
2019-04-13T21:22:35.602Z,19.37
2019-04-13T21:25:05.667Z,19.60
2019-04-13T21:27:35.539Z,18.17
2019-04-13T21:30:05.474Z,19.07
2019-04-13T21:32:33.875Z,19.43
2019-04-13T21:35:03.565Z,19.60
2019-04-13T21:37:33.387Z,18.80
2019-04-13T21:40:03.420Z,19.07
2019-04-13T21:42:31.915Z,19.60
2019-04-13T21:45:01.419Z,21.20
2019-04-13T21:47:31.181Z,19.53
2019-04-13T21:50:02.458Z,20.23
2019-04-13T21:52:38.406Z,19.07
2019-04-13T21:55:07.259Z,18.33
2019-04-13T21:57:35.656Z,20.43
2019-04-13T22:00:09.462Z,18.73
2019-04-13T22:02:37.638Z,20.43
2019-04-13T22:05:07.552Z,18.97
2019-04-13T22:07:37.209Z,20.30
2019-04-13T22:10:09.418Z,20.23
2019-04-13T22:12:39.254Z,19.87
2019-04-13T22:15:10.942Z,21.97
2019-04-13T22:17:38.331Z,21.83
2019-04-13T22:20:08.086Z,21.77
2019-04-13T22:22:37.776Z,21.50
2019-04-13T22:25:06.690Z,20.37
2019-04-13T22:27:48.319Z,22.83
2019-04-13T22:30:10.218Z,20.97
2019-04-13T22:32:43.327Z,22.40
2019-04-13T22:35:13.453Z,21.07
2019-04-13T22:37:42.799Z,22.17
2019-04-13T22:40:12.873Z,22.03
2019-04-13T22:42:42.530Z,21.13
2019-04-13T22:45:14.560Z,20.83
2019-04-13T22:47:43.379Z,20.33
2019-04-13T22:50:28.477Z,21.53
2019-04-13T22:53:08.905Z,20.73
2019-04-13T22:55:45.196Z,22.17
2019-04-13T22:58:14.030Z,21.23
2019-04-13T23:00:54.028Z,22.30
2019-04-13T23:03:22.668Z,23.23
2019-04-13T23:05:52.334Z,22.53
2019-04-13T23:08:20.827Z,23.47
2019-04-13T23:10:49.241Z,21.53
2019-04-13T23:13:18.880Z,22.70
2019-04-13T23:15:47.435Z,23.70
2019-04-13T23:18:16.942Z,22.00
2019-04-13T23:20:45.505Z,21.73
2019-04-13T23:23:13.918Z,23.23
2019-04-13T23:25:42.318Z,22.17
2019-04-13T23:28:11.817Z,20.70
2019-04-13T23:30:40.319Z,22.93
2019-04-13T23:33:08.714Z,22.07
2019-04-13T23:35:37.115Z,21.30
2019-04-13T23:38:05.600Z,21.33
2019-04-13T23:40:35.228Z,22.13
2019-04-13T23:43:04.000Z,20.60
2019-04-13T23:45:36.746Z,21.53
2019-04-13T23:48:02.675Z,20.73
2019-04-13T23:50:31.105Z,20.80
2019-04-13T23:53:00.816Z,21.47
2019-04-13T23:55:31.442Z,20.47
2019-04-13T23:58:17.145Z,20.80
